createdAt,value
2023-07-19T00:02:58.079Z,0
2023-07-19T00:08:17.412Z,0
2023-07-19T00:18:59.926Z,0
2023-07-19T00:24:14.359Z,0
2023-07-19T00:29:33.526Z,0
2023-07-19T00:34:52.251Z,0
2023-07-19T00:40:11.034Z,0
2023-07-19T00:45:30.255Z,0
2023-07-19T00:50:49.471Z,0
2023-07-19T00:56:08.187Z,0
2023-07-19T01:01:27.127Z,0
2023-07-19T01:06:46.654Z,0
2023-07-19T01:12:05.741Z,0
2023-07-19T01:17:25.348Z,0
2023-07-19T01:22:44.904Z,0
2023-07-19T01:28:04.532Z,0
2023-07-19T01:33:32.576Z,0
2023-07-19T01:38:42.463Z,0
2023-07-19T01:44:01.637Z,0
2023-07-19T01:49:20.926Z,0
2023-07-19T01:54:40.371Z,0
2023-07-19T01:59:59.869Z,0
2023-07-19T02:10:38.309Z,0
2023-07-19T02:15:57.367Z,0
2023-07-19T02:21:16.943Z,0
2023-07-19T02:26:36.331Z,0
2023-07-19T02:31:55.494Z,652.81
2023-07-19T02:42:33.418Z,652.81
2023-07-19T02:47:52.686Z,652.81
2023-07-19T02:58:31.083Z,652.81
2023-07-19T03:03:50.699Z,652.81
2023-07-19T03:09:10.368Z,512.56
2023-07-19T03:14:29.358Z,469.21
2023-07-19T03:19:48.604Z,441.16
2023-07-19T03:25:08.064Z,443.71
2023-07-19T03:30:26.998Z,471.76
2023-07-19T03:35:46.487Z,525.31
2023-07-19T03:41:05.810Z,558.46
2023-07-19T03:46:25.353Z,589.06
2023-07-19T03:51:44.949Z,604.36
2023-07-19T03:57:03.306Z,606.91
2023-07-19T04:02:22.292Z,617.11
2023-07-19T04:07:41.011Z,0
2023-07-19T04:12:59.902Z,510.01
2023-07-19T04:18:19.257Z,487.06
2023-07-19T04:23:38.427Z,443.71
2023-07-19T04:28:57.348Z,410.56
2023-07-19T04:34:16.934Z,425.86
2023-07-19T04:39:36.581Z,456.46
2023-07-19T04:44:55.894Z,415.66
2023-07-19T04:50:14.721Z,423.31
2023-07-19T05:00:52.916Z,395.26
2023-07-19T05:06:11.622Z,415.66
2023-07-19T05:11:31.132Z,0
2023-07-19T05:16:50.056Z,502.69
2023-07-19T05:22:08.988Z,0
2023-07-19T05:27:27.995Z,0
2023-07-19T05:32:47.256Z,0
2023-07-19T05:43:26.170Z,321.54
2023-07-19T05:48:45.075Z,502.36
2023-07-19T05:54:04.581Z,0
2023-07-19T05:59:23.903Z,0
2023-07-19T06:04:43.544Z,315.95
2023-07-19T06:10:02.459Z,410.58
2023-07-19T06:15:22.089Z,347.83
2023-07-19T06:20:40.904Z,213.13
2023-07-19T06:26:01.598Z,177.8
2023-07-19T06:31:19.668Z,167.96
2023-07-19T06:41:57.315Z,167.57
2023-07-19T06:47:16.332Z,172.07
2023-07-19T06:52:35.945Z,174.54
2023-07-19T06:57:55.320Z,172.61
2023-07-19T07:08:33.576Z,169.38
2023-07-19T07:13:53.083Z,165.68
2023-07-19T07:19:12.582Z,169.9
2023-07-19T07:24:32.064Z,173.46
2023-07-19T07:29:51.587Z,590.57
2023-07-19T07:35:10.729Z,289.53
2023-07-19T07:40:29.484Z,508.51
2023-07-19T07:45:48.171Z,339.91
2023-07-19T07:51:06.991Z,453.38
2023-07-19T07:56:26.573Z,502.11
2023-07-19T08:01:45.503Z,554.87
2023-07-19T08:07:04.507Z,533.41
2023-07-19T08:12:24.066Z,434.37
2023-07-19T08:23:03.719Z,94.46
2023-07-19T08:28:21.269Z,73.08
2023-07-19T08:38:59.852Z,629.61
2023-07-19T08:44:19.179Z,29.71
2023-07-19T08:49:38.638Z,590.96
2023-07-19T08:54:57.387Z,329.57
2023-07-19T09:05:36.249Z,650.48
2023-07-19T09:10:55.232Z,223.45
2023-07-19T09:16:14.784Z,180.19
2023-07-19T09:21:33.933Z,161.62
2023-07-19T09:32:12.556Z,208.39
2023-07-19T09:37:32.040Z,8.86
2023-07-19T09:42:50.842Z,16.4
2023-07-19T09:48:10.095Z,550.7
2023-07-19T09:53:29.130Z,448.26
2023-07-19T09:58:48.566Z,246.16
2023-07-19T10:04:07.838Z,468.48
2023-07-19T10:09:27.074Z,416.01
2023-07-19T10:14:46.678Z,119.91
2023-07-19T10:20:06.297Z,171.61
2023-07-19T10:25:25.322Z,295.84
2023-07-19T10:30:44.607Z,124.99
2023-07-19T10:36:03.959Z,44.79
2023-07-19T10:41:23.578Z,349.07
2023-07-19T10:46:42.358Z,230.46
2023-07-19T10:52:01.877Z,587.41
2023-07-19T11:02:40.049Z,428.75
2023-07-19T11:07:59.432Z,571.19
2023-07-19T11:13:18.533Z,536.96
2023-07-19T11:18:37.651Z,371.1
2023-07-19T11:29:16.080Z,34.17
2023-07-19T11:34:35.295Z,218.95
2023-07-19T11:39:54.850Z,253.3
2023-07-19T11:45:13.669Z,264.27
2023-07-19T11:55:51.752Z,210.68
2023-07-19T12:01:10.447Z,237.2
2023-07-19T12:06:29.426Z,448.02
2023-07-19T12:11:48.430Z,643.71
2023-07-19T12:17:07.995Z,549.02
2023-07-19T12:22:27.428Z,334.98
2023-07-19T12:27:46.855Z,372.49
2023-07-19T12:33:06.421Z,505.23
2023-07-19T12:38:25.435Z,24.27
2023-07-19T12:43:44.809Z,372.74
2023-07-19T12:49:04.366Z,305.41
2023-07-19T12:54:23.339Z,237.96
2023-07-19T12:59:42.285Z,201.46
2023-07-19T13:05:01.485Z,187.53
2023-07-19T13:10:20.527Z,145.81
2023-07-19T13:15:39.435Z,124.66
2023-07-19T13:20:58.794Z,110.06
2023-07-19T13:26:17.548Z,122.59
2023-07-19T13:36:57.614Z,154.34
2023-07-19T13:42:14.837Z,169.25
2023-07-19T13:47:33.967Z,199.51
2023-07-19T13:52:53.624Z,310.06
2023-07-19T13:53:18.547Z,317.12
2023-07-19T13:58:37.629Z,327.84
2023-07-19T14:09:15.784Z,335.21
2023-07-19T14:19:54.931Z,274.98
2023-07-19T14:25:14.350Z,108.94
2023-07-19T14:30:33.616Z,327.11
2023-07-19T14:35:53.028Z,223.94
2023-07-19T14:41:11.727Z,631.43
2023-07-19T14:46:30.688Z,306.09
2023-07-19T14:51:50.061Z,24.73
2023-07-19T14:57:09.291Z,589.33
2023-07-19T15:13:07.085Z,521.55
2023-07-19T15:18:26.241Z,337.01
2023-07-19T15:29:03.963Z,437.42
2023-07-19T15:34:23.373Z,281.26
2023-07-19T15:39:42.384Z,196.15
2023-07-19T15:50:20.581Z,609.29
2023-07-19T15:55:40.046Z,504.69
2023-07-19T16:00:59.180Z,150.7
2023-07-19T16:06:18.246Z,86.39
2023-07-19T16:11:37.300Z,27.18
2023-07-19T16:16:56.140Z,492.16
2023-07-19T16:22:15.451Z,32.19
2023-07-19T16:27:34.641Z,35.98
2023-07-19T16:32:54.129Z,46.24
2023-07-19T16:38:13.528Z,48.71
2023-07-19T16:48:53.005Z,58.2
2023-07-19T16:54:11.281Z,57.93
2023-07-19T16:59:30.360Z,94.03
2023-07-19T17:04:49.112Z,93.23
2023-07-19T17:15:27.061Z,147.5
2023-07-19T17:20:47.367Z,120.81
2023-07-19T17:26:05.381Z,87.45
2023-07-19T17:31:24.485Z,71.96
2023-07-19T17:36:43.492Z,80.53
2023-07-19T17:42:02.757Z,79.79
2023-07-19T17:47:22.843Z,79
2023-07-19T17:52:40.816Z,72.41
2023-07-19T17:58:00.227Z,65.97
2023-07-19T18:03:19.894Z,66.68
2023-07-19T18:13:58.231Z,52.38
2023-07-19T18:24:36.399Z,40.87
2023-07-19T18:29:56.303Z,45.89
2023-07-19T18:35:14.099Z,38.82
2023-07-19T18:40:33.576Z,29.55
2023-07-19T18:45:52.620Z,26.16
2023-07-19T18:51:11.392Z,24.08
2023-07-19T18:56:30.733Z,24.08
2023-07-19T19:01:50.665Z,22.5
2023-07-19T19:07:09.447Z,21.15
2023-07-19T19:12:29.151Z,20.57
2023-07-19T19:17:47.447Z,15.78
2023-07-19T19:23:07.257Z,10
2023-07-19T19:28:26.637Z,4
2023-07-19T19:33:45.878Z,1
2023-07-19T19:39:15.497Z,0
2023-07-19T19:44:24.070Z,0
2023-07-19T19:49:44.703Z,0
2023-07-19T19:55:03.630Z,0
2023-07-19T20:16:21.640Z,0
2023-07-19T20:21:39.576Z,0
2023-07-19T20:26:59.104Z,0
2023-07-19T20:37:39.255Z,0
2023-07-19T20:42:58.868Z,0
2023-07-19T20:48:14.875Z,0
2023-07-19T20:53:34.742Z,0
2023-07-19T20:58:54.394Z,0
2023-07-19T21:04:14.211Z,0
2023-07-19T21:09:32.481Z,0
2023-07-19T21:14:51.551Z,0
2023-07-19T21:20:11.211Z,0
2023-07-19T21:25:28.815Z,0
2023-07-19T21:30:48.174Z,0
2023-07-19T21:36:08.140Z,0
2023-07-19T21:41:28.286Z,0
2023-07-19T21:46:46.106Z,0
2023-07-19T21:52:05.573Z,0
2023-07-19T21:57:24.657Z,0
2023-07-19T22:02:43.111Z,0
2023-07-19T22:13:22.005Z,0
2023-07-19T22:18:41.840Z,0
2023-07-19T22:29:19.899Z,0
2023-07-19T22:39:59.405Z,0
2023-07-19T22:45:18.258Z,0
2023-07-19T22:50:37.178Z,0
2023-07-19T22:55:56.755Z,0
2023-07-19T23:01:15.838Z,0
2023-07-19T23:06:34.936Z,0
2023-07-19T23:11:54.545Z,0
2023-07-19T23:17:12.822Z,0
2023-07-19T23:22:32.555Z,0
2023-07-19T23:27:52.363Z,0
2023-07-19T23:33:11.188Z,0
2023-07-19T23:38:30.700Z,0
2023-07-19T23:43:50.097Z,0
2023-07-19T23:49:09.289Z,0
2023-07-19T23:54:29.080Z,0
